sensor_id;sensor_type;location;lat;lon;timestamp;temperature;humidity
63771;DHT22;60282;43.862;18.430;2023-03-03T00:01:12;2.90;99.90
63771;DHT22;60282;43.862;18.430;2023-03-03T00:03:38;2.90;99.90
63771;DHT22;60282;43.862;18.430;2023-03-03T00:06:05;2.90;99.90
63771;DHT22;60282;43.862;18.430;2023-03-03T00:08:33;2.90;99.90
63771;DHT22;60282;43.862;18.430;2023-03-03T00:10:59;2.90;99.90
63771;DHT22;60282;43.862;18.430;2023-03-03T00:13:26;2.90;99.90
63771;DHT22;60282;43.862;18.430;2023-03-03T00:15:53;2.90;99.90
63771;DHT22;60282;43.862;18.430;2023-03-03T00:18:33;2.90;99.90
63771;DHT22;60282;43.862;18.430;2023-03-03T00:21:01;2.80;99.90
63771;DHT22;60282;43.862;18.430;2023-03-03T00:23:36;3.30;99.90
63771;DHT22;60282;43.862;18.430;2023-03-03T00:26:16;2.80;99.90
63771;DHT22;60282;43.862;18.430;2023-03-03T00:28:51;2.80;99.90
63771;DHT22;60282;43.862;18.430;2023-03-03T00:31:34;2.80;99.90
63771;DHT22;60282;43.862;18.430;2023-03-03T00:34:25;2.80;99.90
63771;DHT22;60282;43.862;18.430;2023-03-03T00:36:56;2.80;99.90
63771;DHT22;60282;43.862;18.430;2023-03-03T00:39:28;2.90;99.90
63771;DHT22;60282;43.862;18.430;2023-03-03T00:41:56;2.90;99.90
63771;DHT22;60282;43.862;18.430;2023-03-03T00:44:48;2.90;99.90
63771;DHT22;60282;43.862;18.430;2023-03-03T00:47:31;2.90;99.90
63771;DHT22;60282;43.862;18.430;2023-03-03T00:52:44;2.90;99.90
63771;DHT22;60282;43.862;18.430;2023-03-03T00:55:14;2.90;99.90
63771;DHT22;60282;43.862;18.430;2023-03-03T00:57:40;2.90;99.90
63771;DHT22;60282;43.862;18.430;2023-03-03T01:00:07;2.90;99.90
63771;DHT22;60282;43.862;18.430;2023-03-03T01:02:37;2.90;99.90
63771;DHT22;60282;43.862;18.430;2023-03-03T01:05:02;2.90;99.90
63771;DHT22;60282;43.862;18.430;2023-03-03T01:07:31;2.90;99.90
63771;DHT22;60282;43.862;18.430;2023-03-03T01:09:57;2.90;99.90
63771;DHT22;60282;43.862;18.430;2023-03-03T01:12:24;2.90;99.90
63771;DHT22;60282;43.862;18.430;2023-03-03T01:14:51;2.90;99.90
63771;DHT22;60282;43.862;18.430;2023-03-03T01:17:21;2.90;99.90
63771;DHT22;60282;43.862;18.430;2023-03-03T01:19:47;2.90;99.90
63771;DHT22;60282;43.862;18.430;2023-03-03T01:22:12;2.90;99.90
63771;DHT22;60282;43.862;18.430;2023-03-03T01:24:38;2.90;99.90
63771;DHT22;60282;43.862;18.430;2023-03-03T01:27:04;2.90;99.90
63771;DHT22;60282;43.862;18.430;2023-03-03T01:29:29;1.40;99.90
63771;DHT22;60282;43.862;18.430;2023-03-03T01:31:56;2.90;99.90
63771;DHT22;60282;43.862;18.430;2023-03-03T01:34:23;2.90;99.90
63771;DHT22;60282;43.862;18.430;2023-03-03T01:36:53;2.90;99.90
63771;DHT22;60282;43.862;18.430;2023-03-03T01:39:19;2.90;99.90
63771;DHT22;60282;43.862;18.430;2023-03-03T01:41:45;2.80;99.90
63771;DHT22;60282;43.862;18.430;2023-03-03T01:44:14;2.80;99.90
63771;DHT22;60282;43.862;18.430;2023-03-03T01:49:36;2.80;99.90
63771;DHT22;60282;43.862;18.430;2023-03-03T01:52:33;2.80;99.90
63771;DHT22;60282;43.862;18.430;2023-03-03T01:55:16;2.80;99.90
63771;DHT22;60282;43.862;18.430;2023-03-03T01:57:47;2.80;99.90
63771;DHT22;60282;43.862;18.430;2023-03-03T02:00:16;2.80;99.90
63771;DHT22;60282;43.862;18.430;2023-03-03T02:02:47;2.80;99.90
63771;DHT22;60282;43.862;18.430;2023-03-03T02:05:15;2.80;99.90
63771;DHT22;60282;43.862;18.430;2023-03-03T02:07:44;2.80;99.90
63771;DHT22;60282;43.862;18.430;2023-03-03T02:10:20;2.80;99.90
63771;DHT22;60282;43.862;18.430;2023-03-03T02:12:55;2.80;99.90
63771;DHT22;60282;43.862;18.430;2023-03-03T02:15:30;2.90;99.90
63771;DHT22;60282;43.862;18.430;2023-03-03T02:18:14;2.80;99.90
63771;DHT22;60282;43.862;18.430;2023-03-03T02:20:59;2.70;99.90
63771;DHT22;60282;43.862;18.430;2023-03-03T02:26:35;2.70;99.90
63771;DHT22;60282;43.862;18.430;2023-03-03T02:29:03;2.80;99.90
63771;DHT22;60282;43.862;18.430;2023-03-03T02:31:30;2.70;99.90
63771;DHT22;60282;43.862;18.430;2023-03-03T02:33:56;2.60;99.90
63771;DHT22;60282;43.862;18.430;2023-03-03T02:36:29;2.70;99.90
63771;DHT22;60282;43.862;18.430;2023-03-03T02:39:13;2.70;99.90
63771;DHT22;60282;43.862;18.430;2023-03-03T02:44:18;2.80;99.90
63771;DHT22;60282;43.862;18.430;2023-03-03T02:46:45;2.70;99.90
63771;DHT22;60282;43.862;18.430;2023-03-03T02:49:17;2.80;99.90
63771;DHT22;60282;43.862;18.430;2023-03-03T02:51:43;2.80;99.90
63771;DHT22;60282;43.862;18.430;2023-03-03T02:54:10;2.80;99.90
63771;DHT22;60282;43.862;18.430;2023-03-03T02:56:37;2.80;99.90
63771;DHT22;60282;43.862;18.430;2023-03-03T02:59:03;2.80;99.90
63771;DHT22;60282;43.862;18.430;2023-03-03T03:01:33;2.70;99.90
63771;DHT22;60282;43.862;18.430;2023-03-03T03:04:30;2.80;99.90
63771;DHT22;60282;43.862;18.430;2023-03-03T03:06:56;2.80;99.90
63771;DHT22;60282;43.862;18.430;2023-03-03T03:09:25;2.80;99.90
63771;DHT22;60282;43.862;18.430;2023-03-03T03:11:52;2.70;99.90
63771;DHT22;60282;43.862;18.430;2023-03-03T03:14:18;2.70;99.90
63771;DHT22;60282;43.862;18.430;2023-03-03T03:16:44;2.70;99.90
63771;DHT22;60282;43.862;18.430;2023-03-03T03:19:10;2.70;99.90
63771;DHT22;60282;43.862;18.430;2023-03-03T03:21:36;2.70;99.90
63771;DHT22;60282;43.862;18.430;2023-03-03T03:24:02;2.70;99.90
63771;DHT22;60282;43.862;18.430;2023-03-03T03:26:27;2.70;99.90
63771;DHT22;60282;43.862;18.430;2023-03-03T03:28:53;2.70;99.90
63771;DHT22;60282;43.862;18.430;2023-03-03T03:31:20;2.70;99.90
63771;DHT22;60282;43.862;18.430;2023-03-03T03:33:52;2.70;99.90
63771;DHT22;60282;43.862;18.430;2023-03-03T03:36:18;2.70;99.90
63771;DHT22;60282;43.862;18.430;2023-03-03T03:38:44;2.70;99.90
63771;DHT22;60282;43.862;18.430;2023-03-03T03:41:10;2.60;99.90
63771;DHT22;60282;43.862;18.430;2023-03-03T03:43:36;2.60;99.90
63771;DHT22;60282;43.862;18.430;2023-03-03T03:46:02;2.60;99.90
63771;DHT22;60282;43.862;18.430;2023-03-03T03:48:28;2.60;99.90
63771;DHT22;60282;43.862;18.430;2023-03-03T03:50:53;2.60;99.90
63771;DHT22;60282;43.862;18.430;2023-03-03T03:53:20;2.60;99.90
63771;DHT22;60282;43.862;18.430;2023-03-03T03:55:46;2.50;99.90
63771;DHT22;60282;43.862;18.430;2023-03-03T03:58:17;2.50;99.90
63771;DHT22;60282;43.862;18.430;2023-03-03T04:00:46;2.60;99.90
63771;DHT22;60282;43.862;18.430;2023-03-03T04:03:12;2.60;99.90
63771;DHT22;60282;43.862;18.430;2023-03-03T04:05:38;2.50;99.90
63771;DHT22;60282;43.862;18.430;2023-03-03T04:08:05;2.60;99.90
63771;DHT22;60282;43.862;18.430;2023-03-03T04:10:36;2.40;99.90
63771;DHT22;60282;43.862;18.430;2023-03-03T04:13:03;2.60;99.90
63771;DHT22;60282;43.862;18.430;2023-03-03T04:15:29;2.60;99.90
63771;DHT22;60282;43.862;18.430;2023-03-03T04:17:55;2.60;99.90
63771;DHT22;60282;43.862;18.430;2023-03-03T04:20:22;2.60;99.90
63771;DHT22;60282;43.862;18.430;2023-03-03T04:22:48;2.60;99.90
63771;DHT22;60282;43.862;18.430;2023-03-03T04:25:15;2.60;99.90
63771;DHT22;60282;43.862;18.430;2023-03-03T04:27:42;2.60;99.90
63771;DHT22;60282;43.862;18.430;2023-03-03T04:30:08;2.60;99.90
63771;DHT22;60282;43.862;18.430;2023-03-03T04:32:34;2.70;99.90
63771;DHT22;60282;43.862;18.430;2023-03-03T04:35:00;2.60;99.90
63771;DHT22;60282;43.862;18.430;2023-03-03T04:37:26;2.60;99.90
63771;DHT22;60282;43.862;18.430;2023-03-03T04:39:52;2.60;99.90
63771;DHT22;60282;43.862;18.430;2023-03-03T04:42:17;2.60;99.90
63771;DHT22;60282;43.862;18.430;2023-03-03T04:44:43;2.60;99.90
63771;DHT22;60282;43.862;18.430;2023-03-03T04:47:09;2.60;99.90
63771;DHT22;60282;43.862;18.430;2023-03-03T04:49:37;2.60;99.90
63771;DHT22;60282;43.862;18.430;2023-03-03T04:52:06;1.20;99.90
63771;DHT22;60282;43.862;18.430;2023-03-03T04:54:32;2.60;99.90
63771;DHT22;60282;43.862;18.430;2023-03-03T04:56:58;2.60;99.90
63771;DHT22;60282;43.862;18.430;2023-03-03T04:59:24;2.60;99.90
63771;DHT22;60282;43.862;18.430;2023-03-03T05:01:52;2.60;99.90
63771;DHT22;60282;43.862;18.430;2023-03-03T05:04:18;2.50;99.90
63771;DHT22;60282;43.862;18.430;2023-03-03T05:06:44;2.50;99.90
63771;DHT22;60282;43.862;18.430;2023-03-03T05:09:10;2.50;99.90
63771;DHT22;60282;43.862;18.430;2023-03-03T05:11:36;2.50;99.90
63771;DHT22;60282;43.862;18.430;2023-03-03T05:14:02;2.50;99.90
63771;DHT22;60282;43.862;18.430;2023-03-03T05:16:28;2.50;99.90
63771;DHT22;60282;43.862;18.430;2023-03-03T05:18:57;2.50;99.90
63771;DHT22;60282;43.862;18.430;2023-03-03T05:21:23;2.50;99.90
63771;DHT22;60282;43.862;18.430;2023-03-03T05:23:51;2.50;99.90
63771;DHT22;60282;43.862;18.430;2023-03-03T05:26:17;2.50;99.90
63771;DHT22;60282;43.862;18.430;2023-03-03T05:28:43;2.50;99.90
63771;DHT22;60282;43.862;18.430;2023-03-03T05:31:08;2.40;99.90
63771;DHT22;60282;43.862;18.430;2023-03-03T05:33:35;2.50;99.90
63771;DHT22;60282;43.862;18.430;2023-03-03T05:36:01;2.50;99.90
63771;DHT22;60282;43.862;18.430;2023-03-03T05:38:27;2.50;99.90
63771;DHT22;60282;43.862;18.430;2023-03-03T05:40:54;2.50;99.90
63771;DHT22;60282;43.862;18.430;2023-03-03T05:43:19;2.50;99.90
63771;DHT22;60282;43.862;18.430;2023-03-03T05:45:45;2.50;99.90
63771;DHT22;60282;43.862;18.430;2023-03-03T05:48:11;2.50;99.90
63771;DHT22;60282;43.862;18.430;2023-03-03T05:50:37;2.50;99.90
63771;DHT22;60282;43.862;18.430;2023-03-03T05:53:03;2.50;99.90
63771;DHT22;60282;43.862;18.430;2023-03-03T05:55:29;2.60;99.90
63771;DHT22;60282;43.862;18.430;2023-03-03T05:57:54;2.60;99.90
63771;DHT22;60282;43.862;18.430;2023-03-03T06:00:21;4.00;99.90
63771;DHT22;60282;43.862;18.430;2023-03-03T06:02:47;2.60;99.90
63771;DHT22;60282;43.862;18.430;2023-03-03T06:05:16;2.60;99.90
63771;DHT22;60282;43.862;18.430;2023-03-03T06:07:45;2.60;99.90
63771;DHT22;60282;43.862;18.430;2023-03-03T06:10:15;2.60;99.90
63771;DHT22;60282;43.862;18.430;2023-03-03T06:12:41;2.60;99.90
63771;DHT22;60282;43.862;18.430;2023-03-03T06:15:07;2.70;99.90
63771;DHT22;60282;43.862;18.430;2023-03-03T06:17:33;2.70;99.90
63771;DHT22;60282;43.862;18.430;2023-03-03T06:19:59;4.10;99.90
63771;DHT22;60282;43.862;18.430;2023-03-03T06:22:25;2.70;99.90
63771;DHT22;60282;43.862;18.430;2023-03-03T06:24:51;2.70;99.90
63771;DHT22;60282;43.862;18.430;2023-03-03T06:27:17;2.70;99.90
63771;DHT22;60282;43.862;18.430;2023-03-03T06:29:43;2.70;99.90
63771;DHT22;60282;43.862;18.430;2023-03-03T06:32:10;2.70;99.90
63771;DHT22;60282;43.862;18.430;2023-03-03T06:34:36;2.80;99.90
63771;DHT22;60282;43.862;18.430;2023-03-03T06:37:04;2.80;99.90
63771;DHT22;60282;43.862;18.430;2023-03-03T06:39:38;2.80;99.90
63771;DHT22;60282;43.862;18.430;2023-03-03T06:42:05;2.80;99.90
63771;DHT22;60282;43.862;18.430;2023-03-03T06:44:35;2.80;99.90
63771;DHT22;60282;43.862;18.430;2023-03-03T06:47:08;2.80;99.90
63771;DHT22;60282;43.862;18.430;2023-03-03T06:49:34;2.80;99.90
63771;DHT22;60282;43.862;18.430;2023-03-03T06:52:04;2.90;99.90
63771;DHT22;60282;43.862;18.430;2023-03-03T06:54:34;2.90;99.90
63771;DHT22;60282;43.862;18.430;2023-03-03T06:57:05;3.00;99.90
63771;DHT22;60282;43.862;18.430;2023-03-03T06:59:32;3.00;99.90
63771;DHT22;60282;43.862;18.430;2023-03-03T07:02:00;3.00;99.90
63771;DHT22;60282;43.862;18.430;2023-03-03T07:04:31;3.10;99.90
63771;DHT22;60282;43.862;18.430;2023-03-03T07:06:59;3.20;99.90
63771;DHT22;60282;43.862;18.430;2023-03-03T07:09:30;3.20;99.90
63771;DHT22;60282;43.862;18.430;2023-03-03T07:12:01;3.30;99.90
63771;DHT22;60282;43.862;18.430;2023-03-03T07:14:31;3.30;99.90
63771;DHT22;60282;43.862;18.430;2023-03-03T07:17:08;3.30;99.90
63771;DHT22;60282;43.862;18.430;2023-03-03T07:19:36;3.40;99.90
63771;DHT22;60282;43.862;18.430;2023-03-03T07:25:00;3.40;99.90
63771;DHT22;60282;43.862;18.430;2023-03-03T07:27:31;3.40;99.90
63771;DHT22;60282;43.862;18.430;2023-03-03T07:30:32;3.40;99.90
63771;DHT22;60282;43.862;18.430;2023-03-03T07:32:58;2.90;99.90
63771;DHT22;60282;43.862;18.430;2023-03-03T07:35:44;3.50;99.90
63771;DHT22;60282;43.862;18.430;2023-03-03T07:40:51;3.40;99.90
63771;DHT22;60282;43.862;18.430;2023-03-03T07:46:35;3.40;99.90
63771;DHT22;60282;43.862;18.430;2023-03-03T07:51:56;3.50;99.90
63771;DHT22;60282;43.862;18.430;2023-03-03T07:54:35;3.60;99.90
63771;DHT22;60282;43.862;18.430;2023-03-03T08:02:57;3.80;99.90
63771;DHT22;60282;43.862;18.430;2023-03-03T08:11:09;3.90;99.90
63771;DHT22;60282;43.862;18.430;2023-03-03T08:13:40;3.90;99.90
63771;DHT22;60282;43.862;18.430;2023-03-03T08:18:49;4.10;99.90
63771;DHT22;60282;43.862;18.430;2023-03-03T08:21:19;4.20;99.90
63771;DHT22;60282;43.862;18.430;2023-03-03T08:23:45;4.20;99.90
63771;DHT22;60282;43.862;18.430;2023-03-03T08:26:13;4.30;99.90
63771;DHT22;60282;43.862;18.430;2023-03-03T08:28:41;4.60;99.90
63771;DHT22;60282;43.862;18.430;2023-03-03T08:33:33;4.40;99.90
63771;DHT22;60282;43.862;18.430;2023-03-03T08:35:59;4.60;99.90
63771;DHT22;60282;43.862;18.430;2023-03-03T08:40:50;4.60;99.90
63771;DHT22;60282;43.862;18.430;2023-03-03T08:45:50;4.60;99.90
63771;DHT22;60282;43.862;18.430;2023-03-03T08:48:17;4.50;99.90
63771;DHT22;60282;43.862;18.430;2023-03-03T08:50:44;4.50;99.90
63771;DHT22;60282;43.862;18.430;2023-03-03T08:53:11;4.50;99.90
63771;DHT22;60282;43.862;18.430;2023-03-03T08:55:38;4.40;99.90
63771;DHT22;60282;43.862;18.430;2023-03-03T08:58:04;4.50;99.90
63771;DHT22;60282;43.862;18.430;2023-03-03T09:00:29;4.50;99.90
63771;DHT22;60282;43.862;18.430;2023-03-03T09:02:55;4.50;99.90
63771;DHT22;60282;43.862;18.430;2023-03-03T09:05:23;3.50;99.90
63771;DHT22;60282;43.862;18.430;2023-03-03T09:07:49;4.40;99.90
63771;DHT22;60282;43.862;18.430;2023-03-03T09:10:19;4.30;99.90
63771;DHT22;60282;43.862;18.430;2023-03-03T09:12:50;4.30;99.90
63771;DHT22;60282;43.862;18.430;2023-03-03T09:15:28;4.20;99.90
63771;DHT22;60282;43.862;18.430;2023-03-03T09:18:19;4.10;99.90
63771;DHT22;60282;43.862;18.430;2023-03-03T09:20:54;4.00;99.90
63771;DHT22;60282;43.862;18.430;2023-03-03T09:23:38;4.00;99.90
63771;DHT22;60282;43.862;18.430;2023-03-03T09:26:29;4.00;99.90
63771;DHT22;60282;43.862;18.430;2023-03-03T09:31:59;4.10;99.90
63771;DHT22;60282;43.862;18.430;2023-03-03T09:34:41;4.20;99.90
63771;DHT22;60282;43.862;18.430;2023-03-03T09:37:26;4.80;99.90
63771;DHT22;60282;43.862;18.430;2023-03-03T09:39:57;4.30;99.90
63771;DHT22;60282;43.862;18.430;2023-03-03T09:43:08;4.50;99.90
63771;DHT22;60282;43.862;18.430;2023-03-03T09:45:43;4.60;99.90
63771;DHT22;60282;43.862;18.430;2023-03-03T09:48:28;4.70;99.90
63771;DHT22;60282;43.862;18.430;2023-03-03T09:56:33;4.80;99.90
63771;DHT22;60282;43.862;18.430;2023-03-03T10:07:22;4.70;99.90
63771;DHT22;60282;43.862;18.430;2023-03-03T10:18:52;4.90;99.90
63771;DHT22;60282;43.862;18.430;2023-03-03T10:21:43;4.90;99.90
63771;DHT22;60282;43.862;18.430;2023-03-03T10:24:30;5.00;99.90
63771;DHT22;60282;43.862;18.430;2023-03-03T10:45:44;5.50;99.90
63771;DHT22;60282;43.862;18.430;2023-03-03T10:53:58;5.80;99.90
63771;DHT22;60282;43.862;18.430;2023-03-03T11:01:55;6.00;99.90
63771;DHT22;60282;43.862;18.430;2023-03-03T11:13:06;5.70;99.90
63771;DHT22;60282;43.862;18.430;2023-03-03T11:15:49;5.60;99.90
63771;DHT22;60282;43.862;18.430;2023-03-03T11:18:32;5.60;99.90
63771;DHT22;60282;43.862;18.430;2023-03-03T11:21:14;5.60;99.90
63771;DHT22;60282;43.862;18.430;2023-03-03T11:29:10;5.60;99.90
63771;DHT22;60282;43.862;18.430;2023-03-03T11:31:47;5.40;99.90
63771;DHT22;60282;43.862;18.430;2023-03-03T11:34:24;5.50;99.90
63771;DHT22;60282;43.862;18.430;2023-03-03T11:37:00;5.50;99.90
63771;DHT22;60282;43.862;18.430;2023-03-03T11:39:29;5.40;99.90
63771;DHT22;60282;43.862;18.430;2023-03-03T11:42:14;5.40;99.90
63771;DHT22;60282;43.862;18.430;2023-03-03T11:44:54;5.40;99.90
63771;DHT22;60282;43.862;18.430;2023-03-03T11:50:21;5.30;99.90
63771;DHT22;60282;43.862;18.430;2023-03-03T11:55:42;5.30;99.90
63771;DHT22;60282;43.862;18.430;2023-03-03T12:06:13;5.30;99.90
63771;DHT22;60282;43.862;18.430;2023-03-03T12:09:02;5.30;99.90
63771;DHT22;60282;43.862;18.430;2023-03-03T12:12:11;5.10;99.90
63771;DHT22;60282;43.862;18.430;2023-03-03T12:15:01;5.10;99.90
63771;DHT22;60282;43.862;18.430;2023-03-03T12:18:21;5.10;99.90
63771;DHT22;60282;43.862;18.430;2023-03-03T12:24:07;4.90;99.90
63771;DHT22;60282;43.862;18.430;2023-03-03T12:49:04;4.90;99.90
63771;DHT22;60282;43.862;18.430;2023-03-03T12:52:01;4.50;99.90
63771;DHT22;60282;43.862;18.430;2023-03-03T13:00:28;5.20;99.90
63771;DHT22;60282;43.862;18.430;2023-03-03T13:09:01;5.50;99.90
63771;DHT22;60282;43.862;18.430;2023-03-03T13:11:47;5.50;99.90
63771;DHT22;60282;43.862;18.430;2023-03-03T13:14:40;5.50;99.90
63771;DHT22;60282;43.862;18.430;2023-03-03T13:17:16;5.60;99.90
63771;DHT22;60282;43.862;18.430;2023-03-03T13:19:56;5.70;99.90
63771;DHT22;60282;43.862;18.430;2023-03-03T13:28:17;5.90;99.90
63771;DHT22;60282;43.862;18.430;2023-03-03T13:30:51;5.90;99.90
63771;DHT22;60282;43.862;18.430;2023-03-03T13:33:35;6.00;99.90
63771;DHT22;60282;43.862;18.430;2023-03-03T13:36:16;6.10;99.90
63771;DHT22;60282;43.862;18.430;2023-03-03T13:38:53;6.20;99.90
63771;DHT22;60282;43.862;18.430;2023-03-03T13:41:47;6.30;99.90
63771;DHT22;60282;43.862;18.430;2023-03-03T13:52:44;6.50;99.90
63771;DHT22;60282;43.862;18.430;2023-03-03T13:55:26;6.60;99.90
63771;DHT22;60282;43.862;18.430;2023-03-03T13:58:10;6.70;99.90
63771;DHT22;60282;43.862;18.430;2023-03-03T14:03:54;6.70;99.90
63771;DHT22;60282;43.862;18.430;2023-03-03T14:06:28;6.60;99.90
63771;DHT22;60282;43.862;18.430;2023-03-03T14:12:07;6.60;99.90
63771;DHT22;60282;43.862;18.430;2023-03-03T14:17:34;6.50;99.90
63771;DHT22;60282;43.862;18.430;2023-03-03T14:22:55;6.10;99.90
63771;DHT22;60282;43.862;18.430;2023-03-03T14:25:22;6.30;99.90
63771;DHT22;60282;43.862;18.430;2023-03-03T14:27:59;8.00;99.90
63771;DHT22;60282;43.862;18.430;2023-03-03T14:30:37;6.10;99.90
63771;DHT22;60282;43.862;18.430;2023-03-03T14:35:36;5.90;99.90
63771;DHT22;60282;43.862;18.430;2023-03-03T14:46:36;5.80;99.90
63771;DHT22;60282;43.862;18.430;2023-03-03T14:49:13;5.80;99.90
63771;DHT22;60282;43.862;18.430;2023-03-03T14:54:23;5.70;99.90
63771;DHT22;60282;43.862;18.430;2023-03-03T14:56:57;5.70;99.90
63771;DHT22;60282;43.862;18.430;2023-03-03T14:59:25;5.70;99.90
63771;DHT22;60282;43.862;18.430;2023-03-03T15:05:21;5.70;99.90
63771;DHT22;60282;43.862;18.430;2023-03-03T15:08:09;5.50;99.90
63771;DHT22;60282;43.862;18.430;2023-03-03T15:10:40;5.60;99.90
63771;DHT22;60282;43.862;18.430;2023-03-03T15:13:30;5.60;99.90
63771;DHT22;60282;43.862;18.430;2023-03-03T15:16:37;5.60;99.90
63771;DHT22;60282;43.862;18.430;2023-03-03T15:24:44;5.50;99.90
63771;DHT22;60282;43.862;18.430;2023-03-03T15:27:23;5.40;99.90
63771;DHT22;60282;43.862;18.430;2023-03-03T15:40:27;5.10;99.90
63771;DHT22;60282;43.862;18.430;2023-03-03T15:49:24;5.10;99.90
63771;DHT22;60282;43.862;18.430;2023-03-03T15:52:15;5.00;99.90
63771;DHT22;60282;43.862;18.430;2023-03-03T16:00:34;4.90;99.90
63771;DHT22;60282;43.862;18.430;2023-03-03T16:03:32;4.90;99.90
63771;DHT22;60282;43.862;18.430;2023-03-03T16:15:18;4.80;99.90
63771;DHT22;60282;43.862;18.430;2023-03-03T16:23:55;4.70;99.90
63771;DHT22;60282;43.862;18.430;2023-03-03T16:26:45;4.70;99.90
63771;DHT22;60282;43.862;18.430;2023-03-03T16:33:06;4.60;99.90
63771;DHT22;60282;43.862;18.430;2023-03-03T16:35:54;4.20;99.90
63771;DHT22;60282;43.862;18.430;2023-03-03T16:38:35;4.60;99.90
63771;DHT22;60282;43.862;18.430;2023-03-03T16:41:06;4.50;99.90
63771;DHT22;60282;43.862;18.430;2023-03-03T17:00:19;4.30;99.90
63771;DHT22;60282;43.862;18.430;2023-03-03T17:05:48;4.30;99.90
63771;DHT22;60282;43.862;18.430;2023-03-03T17:42:42;4.00;99.90
63771;DHT22;60282;43.862;18.430;2023-03-03T17:45:14;4.00;99.90
63771;DHT22;60282;43.862;18.430;2023-03-03T17:48:33;4.00;99.90
63771;DHT22;60282;43.862;18.430;2023-03-03T17:59:40;3.90;99.90
63771;DHT22;60282;43.862;18.430;2023-03-03T18:08:17;3.90;99.90
63771;DHT22;60282;43.862;18.430;2023-03-03T18:26:51;3.80;99.90
63771;DHT22;60282;43.862;18.430;2023-03-03T18:37:00;3.80;99.90
63771;DHT22;60282;43.862;18.430;2023-03-03T18:39:47;3.80;99.90
63771;DHT22;60282;43.862;18.430;2023-03-03T18:44:50;3.60;99.90
63771;DHT22;60282;43.862;18.430;2023-03-03T18:47:17;3.80;99.90
63771;DHT22;60282;43.862;18.430;2023-03-03T18:50:04;3.70;99.90
63771;DHT22;60282;43.862;18.430;2023-03-03T18:52:37;3.70;99.90
63771;DHT22;60282;43.862;18.430;2023-03-03T18:57:35;3.60;99.90
63771;DHT22;60282;43.862;18.430;2023-03-03T19:00:14;3.50;99.90
63771;DHT22;60282;43.862;18.430;2023-03-03T19:02:51;3.50;99.90
63771;DHT22;60282;43.862;18.430;2023-03-03T19:05:20;3.50;99.90
63771;DHT22;60282;43.862;18.430;2023-03-03T19:08:03;3.50;99.90
63771;DHT22;60282;43.862;18.430;2023-03-03T19:13:39;3.50;99.90
63771;DHT22;60282;43.862;18.430;2023-03-03T19:16:10;3.50;99.90
63771;DHT22;60282;43.862;18.430;2023-03-03T19:18:57;3.60;99.90
63771;DHT22;60282;43.862;18.430;2023-03-03T19:21:41;3.60;99.90
63771;DHT22;60282;43.862;18.430;2023-03-03T19:24:39;3.60;99.90
63771;DHT22;60282;43.862;18.430;2023-03-03T19:27:42;3.60;99.90
63771;DHT22;60282;43.862;18.430;2023-03-03T19:30:11;3.70;99.90
63771;DHT22;60282;43.862;18.430;2023-03-03T19:32:45;3.70;99.90
63771;DHT22;60282;43.862;18.430;2023-03-03T19:35:35;3.70;99.90
63771;DHT22;60282;43.862;18.430;2023-03-03T19:41:25;3.70;99.90
63771;DHT22;60282;43.862;18.430;2023-03-03T19:44:04;3.70;99.90
63771;DHT22;60282;43.862;18.430;2023-03-03T19:46:39;3.70;99.90
63771;DHT22;60282;43.862;18.430;2023-03-03T19:51:58;3.70;99.90
63771;DHT22;60282;43.862;18.430;2023-03-03T20:09:00;3.50;99.90
63771;DHT22;60282;43.862;18.430;2023-03-03T20:17:21;3.60;99.90
63771;DHT22;60282;43.862;18.430;2023-03-03T20:31:57;3.60;99.90
63771;DHT22;60282;43.862;18.430;2023-03-03T20:43:58;3.70;99.90
63771;DHT22;60282;43.862;18.430;2023-03-03T20:49:46;3.60;99.90
63771;DHT22;60282;43.862;18.430;2023-03-03T21:03:41;3.60;99.90
63771;DHT22;60282;43.862;18.430;2023-03-03T21:06:15;3.60;99.90
63771;DHT22;60282;43.862;18.430;2023-03-03T21:08:50;3.60;99.90
63771;DHT22;60282;43.862;18.430;2023-03-03T21:14:32;3.60;99.90
63771;DHT22;60282;43.862;18.430;2023-03-03T21:16:58;3.60;99.90
63771;DHT22;60282;43.862;18.430;2023-03-03T21:19:34;3.60;99.90
63771;DHT22;60282;43.862;18.430;2023-03-03T21:22:36;3.60;99.90
63771;DHT22;60282;43.862;18.430;2023-03-03T21:25:02;3.60;99.90
63771;DHT22;60282;43.862;18.430;2023-03-03T21:27:33;3.60;99.90
63771;DHT22;60282;43.862;18.430;2023-03-03T21:30:12;3.60;99.90
63771;DHT22;60282;43.862;18.430;2023-03-03T21:32:42;3.70;99.90
63771;DHT22;60282;43.862;18.430;2023-03-03T21:35:19;5.40;99.90
63771;DHT22;60282;43.862;18.430;2023-03-03T21:37:57;3.60;99.90
63771;DHT22;60282;43.862;18.430;2023-03-03T21:40:25;3.60;99.90
63771;DHT22;60282;43.862;18.430;2023-03-03T21:43:31;3.60;99.90
63771;DHT22;60282;43.862;18.430;2023-03-03T21:46:00;3.60;99.90
63771;DHT22;60282;43.862;18.430;2023-03-03T21:48:46;3.60;99.90
63771;DHT22;60282;43.862;18.430;2023-03-03T21:51:13;3.60;99.90
63771;DHT22;60282;43.862;18.430;2023-03-03T21:53:59;3.90;99.90
63771;DHT22;60282;43.862;18.430;2023-03-03T21:56:33;3.60;99.90
63771;DHT22;60282;43.862;18.430;2023-03-03T21:59:19;3.50;99.90
63771;DHT22;60282;43.862;18.430;2023-03-03T22:01:45;3.50;99.90
63771;DHT22;60282;43.862;18.430;2023-03-03T22:04:11;2.40;99.90
63771;DHT22;60282;43.862;18.430;2023-03-03T22:06:42;3.50;99.90
63771;DHT22;60282;43.862;18.430;2023-03-03T22:09:08;3.50;99.90
63771;DHT22;60282;43.862;18.430;2023-03-03T22:11:33;3.50;99.90
63771;DHT22;60282;43.862;18.430;2023-03-03T22:13:59;3.50;99.90
63771;DHT22;60282;43.862;18.430;2023-03-03T22:16:25;3.50;99.90
63771;DHT22;60282;43.862;18.430;2023-03-03T22:18:53;3.40;99.90
63771;DHT22;60282;43.862;18.430;2023-03-03T22:21:20;3.50;99.90
63771;DHT22;60282;43.862;18.430;2023-03-03T22:24:11;3.40;99.90
63771;DHT22;60282;43.862;18.430;2023-03-03T22:27:00;3.50;99.90
63771;DHT22;60282;43.862;18.430;2023-03-03T22:29:44;4.50;99.90
63771;DHT22;60282;43.862;18.430;2023-03-03T22:32:11;3.50;99.90
63771;DHT22;60282;43.862;18.430;2023-03-03T22:34:37;3.50;99.90
63771;DHT22;60282;43.862;18.430;2023-03-03T22:37:03;3.50;99.90
63771;DHT22;60282;43.862;18.430;2023-03-03T22:39:29;3.50;99.90
63771;DHT22;60282;43.862;18.430;2023-03-03T22:41:55;3.50;99.90
63771;DHT22;60282;43.862;18.430;2023-03-03T22:44:24;3.40;99.90
63771;DHT22;60282;43.862;18.430;2023-03-03T22:46:49;3.50;99.90
63771;DHT22;60282;43.862;18.430;2023-03-03T22:49:18;3.50;99.90
63771;DHT22;60282;43.862;18.430;2023-03-03T22:52:04;3.50;99.90
63771;DHT22;60282;43.862;18.430;2023-03-03T22:54:30;3.50;99.90
63771;DHT22;60282;43.862;18.430;2023-03-03T22:56:56;3.50;99.90
63771;DHT22;60282;43.862;18.430;2023-03-03T22:59:23;3.50;99.90
63771;DHT22;60282;43.862;18.430;2023-03-03T23:01:52;3.50;99.90
63771;DHT22;60282;43.862;18.430;2023-03-03T23:04:37;3.50;99.90
63771;DHT22;60282;43.862;18.430;2023-03-03T23:07:03;3.50;99.90